createdAt,value
2023-01-17T04:48:07.390Z,5.59
2023-01-17T04:51:10.488Z,5.59
2023-01-17T04:54:12.876Z,5.21
2023-01-17T04:57:16.706Z,5.26
2023-01-17T05:00:19.618Z,5.32
2023-01-17T05:03:23.201Z,5.41
2023-01-17T05:06:25.610Z,5.46
2023-01-17T05:09:28.298Z,5.50
2023-01-17T05:12:30.819Z,5.57
2023-01-17T05:15:33.563Z,5.59
2023-01-17T05:18:36.047Z,5.61
2023-01-17T05:21:38.747Z,5.64
2023-01-17T05:24:44.653Z,5.67
2023-01-17T05:27:47.322Z,5.61
2023-01-17T05:30:49.924Z,5.60
2023-01-17T05:33:52.513Z,5.59
2023-01-17T05:36:55.094Z,5.57
2023-01-17T05:39:57.780Z,5.55
2023-01-17T05:43:02.902Z,5.52
2023-01-17T05:46:05.774Z,5.56
2023-01-17T05:49:08.768Z,5.57
2023-01-17T05:52:11.810Z,5.62
2023-01-17T05:55:15.506Z,5.56
2023-01-17T05:58:21.420Z,5.58
2023-01-17T06:01:24.687Z,5.58
2023-01-17T06:04:27.346Z,5.56
2023-01-17T06:07:29.734Z,5.59
2023-01-17T06:10:32.730Z,5.67
2023-01-17T06:13:35.084Z,5.64
2023-01-17T06:16:37.791Z,5.66
2023-01-17T06:19:40.161Z,5.67
2023-01-17T06:22:42.767Z,5.67
2023-01-17T06:25:46.811Z,5.65
2023-01-17T06:28:49.887Z,5.60
2023-01-17T06:31:52.477Z,5.50
2023-01-17T06:34:55.441Z,5.57
2023-01-17T06:37:59.751Z,5.54
2023-01-17T06:41:05.930Z,5.53
2023-01-17T06:44:09.869Z,5.46
2023-01-17T06:47:12.548Z,5.38
2023-01-17T06:50:15.070Z,5.32
2023-01-17T06:53:18.031Z,5.37
2023-01-17T06:56:21.098Z,5.41
2023-01-17T06:59:24.269Z,5.43
2023-01-17T07:02:27.011Z,5.40
2023-01-17T07:05:29.966Z,5.43
2023-01-17T07:08:32.821Z,5.46
2023-01-17T07:11:35.653Z,5.47
2023-01-17T07:14:38.479Z,5.49
2023-01-17T07:17:41.676Z,5.51
2023-01-17T07:20:44.401Z,5.54
2023-01-17T07:23:48.151Z,5.55
2023-01-17T07:26:51.601Z,5.53
2023-01-17T07:29:55.421Z,5.56
2023-01-17T07:32:58.114Z,5.56
2023-01-17T07:36:09.366Z,5.50
2023-01-17T07:39:12.369Z,5.44
2023-01-17T07:42:15.381Z,5.42
2023-01-17T07:45:18.866Z,5.30
2023-01-17T07:48:23.570Z,5.29
2023-01-17T07:51:25.933Z,5.28
2023-01-17T07:54:28.640Z,5.32
2023-01-17T07:57:32.524Z,5.34
2023-01-17T08:00:35.277Z,5.22
2023-01-17T08:03:42.092Z,5.14
2023-01-17T08:06:50.698Z,5.16
2023-01-17T08:09:54.732Z,5.20
2023-01-17T08:12:57.262Z,5.33
2023-01-17T08:16:02.399Z,5.52
2023-01-17T08:19:04.916Z,5.69
2023-01-17T08:22:09.517Z,5.83
2023-01-17T08:25:12.650Z,5.94
2023-01-17T08:28:15.952Z,5.89
2023-01-17T08:31:19.873Z,5.75
2023-01-17T08:34:24.427Z,5.69
2023-01-17T08:37:26.946Z,5.52
2023-01-17T08:40:29.700Z,5.85
2023-01-17T08:43:32.536Z,6.52
2023-01-17T08:46:38.244Z,6.65
2023-01-17T08:49:40.974Z,7.72
2023-01-17T08:52:43.797Z,8.15
2023-01-17T08:55:46.557Z,7.76
2023-01-17T08:58:49.434Z,7.56
2023-01-17T09:01:52.542Z,7.58
2023-01-17T09:04:55.314Z,7.36
2023-01-17T09:07:57.660Z,6.82
2023-01-17T09:11:08.811Z,6.32
2023-01-17T09:14:13.125Z,6.01
2023-01-17T09:17:16.002Z,5.87
2023-01-17T09:20:18.843Z,5.71
2023-01-17T09:23:30.037Z,5.71
2023-01-17T09:26:32.404Z,5.75
2023-01-17T09:29:35.072Z,5.66
2023-01-17T09:32:37.696Z,5.57
2023-01-17T09:35:40.526Z,5.66
2023-01-17T09:38:43.066Z,5.53
2023-01-17T09:41:54.617Z,5.64
2023-01-17T09:44:57.853Z,5.64
2023-01-17T09:48:07.281Z,5.78
2023-01-17T09:51:18.823Z,5.82
2023-01-17T09:54:32.440Z,5.94
2023-01-17T09:57:54.073Z,6.11
2023-01-17T10:01:15.682Z,6.11
2023-01-17T10:04:27.600Z,6.24
2023-01-17T10:07:51.833Z,6.24
2023-01-17T10:11:15.592Z,6.24
2023-01-17T10:14:35.528Z,6.40
2023-01-17T10:18:19.136Z,6.42
2023-01-17T10:21:37.449Z,6.41
2023-01-17T10:24:42.978Z,6.60
2023-01-17T10:27:58.950Z,6.61
2023-01-17T10:31:10.371Z,6.68
2023-01-17T10:34:20.922Z,6.75
2023-01-17T10:37:43.447Z,6.83
2023-01-17T10:40:55.299Z,6.88
2023-01-17T10:44:15.628Z,7.04
2023-01-17T10:47:24.640Z,6.99
2023-01-17T10:50:29.097Z,7.07
2023-01-17T10:54:05.687Z,7.07
2023-01-17T10:57:18.638Z,7.07
2023-01-17T11:00:45.426Z,7.26
2023-01-17T11:03:51.047Z,7.31
2023-01-17T11:07:13.264Z,7.20
2023-01-17T11:10:39.819Z,7.32
2023-01-17T11:13:42.455Z,7.41
2023-01-17T11:16:45.250Z,7.45
2023-01-17T11:19:51.248Z,7.47
2023-01-17T11:23:03.007Z,7.45
2023-01-17T11:26:07.654Z,7.47
2023-01-17T11:29:36.826Z,7.56
2023-01-17T11:32:52.746Z,7.59
2023-01-17T11:35:56.493Z,7.52
2023-01-17T11:39:21.900Z,7.67
2023-01-17T11:43:00.012Z,7.79
2023-01-17T11:46:17.962Z,7.76
2023-01-17T11:49:25.409Z,7.81
2023-01-17T11:52:37.487Z,7.76
2023-01-17T11:55:40.743Z,7.84
2023-01-17T11:58:45.896Z,7.99
2023-01-17T12:02:01.642Z,8.10
2023-01-17T12:05:18.369Z,8.19
2023-01-17T12:08:57.677Z,8.24
2023-01-17T12:12:34.667Z,8.27
2023-01-17T12:15:56.001Z,8.28
2023-01-17T12:19:22.773Z,8.31
2023-01-17T12:22:46.573Z,8.45
2023-01-17T12:25:55.861Z,8.56
2023-01-17T12:29:07.449Z,8.73
2023-01-17T12:32:32.131Z,8.88
2023-01-17T12:35:53.388Z,8.81
2023-01-17T12:38:58.574Z,8.66
2023-01-17T12:42:18.701Z,8.65
2023-01-17T12:45:28.486Z,8.67
2023-01-17T12:48:36.587Z,8.61
2023-01-17T12:51:43.532Z,8.58
2023-01-17T12:54:53.569Z,8.60
2023-01-17T12:58:00.364Z,8.60
2023-01-17T13:01:16.787Z,8.59
2023-01-17T13:04:34.263Z,8.56
2023-01-17T13:07:51.488Z,8.42
2023-01-17T13:11:33.499Z,8.33
2023-01-17T13:14:36.019Z,8.28
2023-01-17T13:17:48.167Z,8.25
2023-01-17T13:21:10.577Z,8.23
2023-01-17T13:24:31.083Z,8.15
2023-01-17T13:27:52.982Z,7.99
2023-01-17T13:31:12.675Z,7.92
2023-01-17T13:34:38.443Z,7.86
2023-01-17T13:37:56.717Z,7.77
2023-01-17T13:41:34.003Z,7.69
2023-01-17T13:44:37.425Z,7.74
2023-01-17T13:47:41.702Z,7.65
2023-01-17T13:50:47.335Z,7.60
2023-01-17T13:53:49.775Z,7.54
2023-01-17T13:57:43.242Z,7.50
2023-01-17T14:00:45.667Z,7.52
2023-01-17T14:03:51.944Z,7.51
2023-01-17T14:06:58.003Z,7.48
2023-01-17T14:10:01.170Z,7.49
2023-01-17T14:13:06.509Z,7.43
2023-01-17T14:16:27.504Z,7.38
2023-01-17T14:19:36.346Z,7.25
2023-01-17T14:23:01.011Z,7.16
2023-01-17T14:26:32.737Z,7.08
2023-01-17T14:29:57.023Z,7.11
2023-01-17T14:33:03.086Z,7.08
2023-01-17T14:36:08.674Z,7.11
2023-01-17T14:39:22.436Z,7.17
2023-01-17T14:42:27.895Z,7.19
2023-01-17T14:45:33.419Z,7.25
2023-01-17T14:48:40.119Z,7.22
2023-01-17T14:51:42.964Z,7.22
2023-01-17T14:54:50.989Z,7.11
2023-01-17T14:57:57.284Z,7.14
2023-01-17T15:01:14.826Z,7.08
2023-01-17T15:04:30.116Z,6.98
2023-01-17T15:07:32.882Z,7.05
2023-01-17T15:10:35.947Z,7.20
2023-01-17T15:13:45.236Z,7.25
2023-01-17T15:16:47.963Z,7.15
2023-01-17T15:19:59.591Z,7.12
2023-01-17T15:23:03.004Z,7.18
2023-01-17T15:26:10.028Z,7.26
2023-01-17T15:29:22.601Z,7.23
2023-01-17T15:32:31.696Z,7.31
2023-01-17T15:35:34.280Z,7.09
2023-01-17T15:38:40.650Z,7.25
2023-01-17T15:41:43.310Z,7.16
2023-01-17T15:44:48.863Z,7.15
2023-01-17T15:47:51.754Z,7.17
2023-01-17T15:50:58.905Z,7.15
2023-01-17T15:54:24.873Z,7.17
2023-01-17T15:57:37.354Z,7.18
2023-01-17T16:00:41.838Z,7.19
2023-01-17T16:03:54.676Z,7.15
2023-01-17T16:07:19.819Z,7.17
2023-01-17T16:10:25.556Z,7.13
2023-01-17T16:13:34.040Z,7.15
2023-01-17T16:16:37.441Z,7.15
2023-01-17T16:19:40.071Z,7.14
2023-01-17T16:22:43.916Z,7.14
2023-01-17T16:25:48.189Z,7.18
2023-01-17T16:28:51.761Z,7.14
2023-01-17T16:31:55.141Z,7.13
2023-01-17T16:34:57.994Z,7.09
2023-01-17T16:38:02.318Z,7.06
2023-01-17T16:41:05.623Z,7.09
2023-01-17T16:44:08.190Z,6.97
2023-01-17T16:47:10.896Z,6.95
